sensor_id;sensor_type;location;lat;lon;timestamp;pressure;altitude;pressure_sealevel;temperature;humidity
23643;BME280;11998;55.788;37.572;2022-10-31T00:01:00;97332.66;;;1.75;100.00
23643;BME280;11998;55.788;37.572;2022-10-31T00:02:01;97337.88;;;1.75;100.00
23643;BME280;11998;55.788;37.572;2022-10-31T00:03:01;97325.78;;;1.71;100.00
23643;BME280;11998;55.788;37.572;2022-10-31T00:04:03;97326.72;;;1.68;100.00
23643;BME280;11998;55.788;37.572;2022-10-31T00:05:04;97327.56;;;1.69;100.00
23643;BME280;11998;55.788;37.572;2022-10-31T00:06:04;97318.78;;;1.73;100.00
23643;BME280;11998;55.788;37.572;2022-10-31T00:07:05;97328.31;;;1.75;100.00
23643;BME280;11998;55.788;37.572;2022-10-31T00:08:05;97329.22;;;1.73;100.00
23643;BME280;11998;55.788;37.572;2022-10-31T00:09:06;97324.03;;;1.71;100.00
23643;BME280;11998;55.788;37.572;2022-10-31T00:10:07;97318.84;;;1.70;100.00
23643;BME280;11998;55.788;37.572;2022-10-31T00:11:09;97318.88;;;1.68;100.00
23643;BME280;11998;55.788;37.572;2022-10-31T00:12:09;97324.00;;;1.73;100.00
23643;BME280;11998;55.788;37.572;2022-10-31T00:13:11;97320.56;;;1.71;100.00
23643;BME280;11998;55.788;37.572;2022-10-31T00:14:11;97318.00;;;1.69;100.00
23643;BME280;11998;55.788;37.572;2022-10-31T00:15:12;97313.56;;;1.73;100.00
23643;BME280;11998;55.788;37.572;2022-10-31T00:16:20;97303.13;;;1.73;100.00
23643;BME280;11998;55.788;37.572;2022-10-31T00:17:21;97314.38;;;1.76;100.00
23643;BME280;11998;55.788;37.572;2022-10-31T00:18:22;97314.41;;;1.75;100.00
23643;BME280;11998;55.788;37.572;2022-10-31T00:19:22;97320.44;;;1.77;100.00
23643;BME280;11998;55.788;37.572;2022-10-31T00:20:23;97323.94;;;1.76;100.00
23643;BME280;11998;55.788;37.572;2022-10-31T00:21:24;97318.56;;;1.82;100.00
23643;BME280;11998;55.788;37.572;2022-10-31T00:22:25;97313.34;;;1.82;100.00
23643;BME280;11998;55.788;37.572;2022-10-31T00:23:26;97316.88;;;1.81;100.00
23643;BME280;11998;55.788;37.572;2022-10-31T00:24:26;97308.28;;;1.76;100.00
23643;BME280;11998;55.788;37.572;2022-10-31T00:25:28;97315.31;;;1.74;100.00
23643;BME280;11998;55.788;37.572;2022-10-31T00:26:30;97310.09;;;1.74;100.00
23643;BME280;11998;55.788;37.572;2022-10-31T00:27:31;97297.13;;;1.69;100.00
23643;BME280;11998;55.788;37.572;2022-10-31T00:28:32;97312.78;;;1.69;100.00
23643;BME280;11998;55.788;37.572;2022-10-31T00:29:33;97309.28;;;1.70;100.00
23643;BME280;11998;55.788;37.572;2022-10-31T00:30:33;97306.69;;;1.69;100.00
23643;BME280;11998;55.788;37.572;2022-10-31T00:31:34;97315.34;;;1.71;100.00
23643;BME280;11998;55.788;37.572;2022-10-31T00:32:34;97311.13;;;1.65;100.00
23643;BME280;11998;55.788;37.572;2022-10-31T00:33:37;97313.56;;;1.73;100.00
23643;BME280;11998;55.788;37.572;2022-10-31T00:34:38;97303.94;;;1.76;100.00
23643;BME280;11998;55.788;37.572;2022-10-31T00:35:39;97307.44;;;1.75;100.00
23643;BME280;11998;55.788;37.572;2022-10-31T00:36:39;97314.38;;;1.76;100.00
23643;BME280;11998;55.788;37.572;2022-10-31T00:37:40;97310.94;;;1.74;100.00
23643;BME280;11998;55.788;37.572;2022-10-31T00:38:41;97303.00;;;1.79;100.00
23643;BME280;11998;55.788;37.572;2022-10-31T00:39:42;97315.97;;;1.82;100.00
23643;BME280;11998;55.788;37.572;2022-10-31T00:40:42;97302.09;;;1.80;100.00
23643;BME280;11998;55.788;37.572;2022-10-31T00:41:43;97310.78;;;1.81;100.00
23643;BME280;11998;55.788;37.572;2022-10-31T00:42:43;97304.72;;;1.80;100.00
23643;BME280;11998;55.788;37.572;2022-10-31T00:43:44;97295.16;;;1.79;100.00
23643;BME280;11998;55.788;37.572;2022-10-31T00:44:44;97310.09;;;1.74;100.00
23643;BME280;11998;55.788;37.572;2022-10-31T00:45:45;97306.47;;;1.80;100.00
23643;BME280;11998;55.788;37.572;2022-10-31T00:46:45;97305.50;;;1.84;100.00
23643;BME280;11998;55.788;37.572;2022-10-31T00:47:46;97309.81;;;1.86;100.00
23643;BME280;11998;55.788;37.572;2022-10-31T00:48:46;97309.03;;;1.81;100.00
23643;BME280;11998;55.788;37.572;2022-10-31T00:49:47;97297.69;;;1.82;100.00
23643;BME280;11998;55.788;37.572;2022-10-31T00:50:47;97306.53;;;1.76;100.00
23643;BME280;11998;55.788;37.572;2022-10-31T00:51:48;97311.66;;;1.81;100.00
23643;BME280;11998;55.788;37.572;2022-10-31T00:52:48;97301.22;;;1.81;100.00
23643;BME280;11998;55.788;37.572;2022-10-31T00:53:49;97311.66;;;1.81;100.00
23643;BME280;11998;55.788;37.572;2022-10-31T00:54:49;97303.06;;;1.76;100.00
23643;BME280;11998;55.788;37.572;2022-10-31T00:55:50;97300.44;;;1.77;100.00
23643;BME280;11998;55.788;37.572;2022-10-31T00:56:50;97307.25;;;1.83;100.00
23643;BME280;11998;55.788;37.572;2022-10-31T00:57:51;97303.91;;;1.78;100.00
23643;BME280;11998;55.788;37.572;2022-10-31T00:58:51;97303.91;;;1.78;100.00
23643;BME280;11998;55.788;37.572;2022-10-31T00:59:52;97313.47;;;1.77;100.00
23643;BME280;11998;55.788;37.572;2022-10-31T01:00:53;97307.44;;;1.75;100.00
23643;BME280;11998;55.788;37.572;2022-10-31T01:01:56;97306.63;;;1.72;100.00
23643;BME280;11998;55.788;37.572;2022-10-31T01:02:56;97303.91;;;1.78;100.00
23643;BME280;11998;55.788;37.572;2022-10-31T01:03:57;97307.50;;;1.71;100.00
23643;BME280;11998;55.788;37.572;2022-10-31T01:04:57;97305.81;;;1.70;100.00
23643;BME280;11998;55.788;37.572;2022-10-31T01:06:03;97308.34;;;1.73;100.00
23643;BME280;11998;55.788;37.572;2022-10-31T01:07:05;97308.34;;;1.73;100.00
23643;BME280;11998;55.788;37.572;2022-10-31T01:08:05;97308.41;;;1.70;100.00
23643;BME280;11998;55.788;37.572;2022-10-31T01:09:06;97308.34;;;1.73;100.00
23643;BME280;11998;55.788;37.572;2022-10-31T01:10:08;97310.03;;;1.75;100.00
23643;BME280;11998;55.788;37.572;2022-10-31T01:11:14;97311.06;;;1.68;100.00
23643;BME280;11998;55.788;37.572;2022-10-31T01:12:15;97313.69;;;1.67;100.00
23643;BME280;11998;55.788;37.572;2022-10-31T01:13:15;97301.88;;;1.51;100.00
23643;BME280;11998;55.788;37.572;2022-10-31T01:14:16;97308.00;;;1.50;100.00
23643;BME280;11998;55.788;37.572;2022-10-31T01:15:19;97323.56;;;1.53;100.00
23643;BME280;11998;55.788;37.572;2022-10-31T01:16:23;97310.59;;;1.50;100.00
23643;BME280;11998;55.788;37.572;2022-10-31T01:17:24;97317.00;;;1.33;100.00
23643;BME280;11998;55.788;37.572;2022-10-31T01:18:25;97323.00;;;1.38;100.00
23643;BME280;11998;55.788;37.572;2022-10-31T01:19:26;97317.72;;;1.41;100.00
23643;BME280;11998;55.788;37.572;2022-10-31T01:20:26;97317.81;;;1.35;100.00
23643;BME280;11998;55.788;37.572;2022-10-31T01:21:28;97310.91;;;1.34;100.00
23643;BME280;11998;55.788;37.572;2022-10-31T01:22:29;97314.41;;;1.33;100.00
23643;BME280;11998;55.788;37.572;2022-10-31T01:23:30;97317.78;;;1.38;100.00
23643;BME280;11998;55.788;37.572;2022-10-31T01:24:31;97323.22;;;1.28;100.00
23643;BME280;11998;55.788;37.572;2022-10-31T01:25:31;97318.81;;;1.30;100.00
23643;BME280;11998;55.788;37.572;2022-10-31T01:26:32;97322.44;;;1.24;100.00
23643;BME280;11998;55.788;37.572;2022-10-31T01:27:33;97328.56;;;1.20;100.00
23643;BME280;11998;55.788;37.572;2022-10-31T01:28:36;97333.88;;;1.15;100.00
23643;BME280;11998;55.788;37.572;2022-10-31T01:29:37;97345.31;;;1.08;100.00
23643;BME280;11998;55.788;37.572;2022-10-31T01:30:37;97330.72;;;1.00;100.00
23643;BME280;11998;55.788;37.572;2022-10-31T01:31:39;97334.41;;;0.86;100.00
23643;BME280;11998;55.788;37.572;2022-10-31T01:32:39;97336.16;;;0.87;100.00
23643;BME280;11998;55.788;37.572;2022-10-31T01:33:40;97334.47;;;0.83;100.00
23643;BME280;11998;55.788;37.572;2022-10-31T01:34:40;97346.66;;;0.81;100.00
23643;BME280;11998;55.788;37.572;2022-10-31T01:35:40;97338.88;;;0.80;100.00
23643;BME280;11998;55.788;37.572;2022-10-31T01:36:41;97344.09;;;0.80;100.00
23643;BME280;11998;55.788;37.572;2022-10-31T01:37:42;97342.56;;;0.68;100.00
23643;BME280;11998;55.788;37.572;2022-10-31T01:38:43;97340.03;;;0.65;100.00
23643;BME280;11998;55.788;37.572;2022-10-31T01:39:43;97339.22;;;0.60;100.00
23643;BME280;11998;55.788;37.572;2022-10-31T01:40:44;97339.91;;;0.71;100.00
23643;BME280;11998;55.788;37.572;2022-10-31T01:41:47;97340.81;;;0.69;100.00
23643;BME280;11998;55.788;37.572;2022-10-31T01:42:48;97336.38;;;0.75;100.00
23643;BME280;11998;55.788;37.572;2022-10-31T01:43:50;97346.88;;;0.69;100.00
23643;BME280;11998;55.788;37.572;2022-10-31T01:44:54;97346.88;;;0.69;100.00
23643;BME280;11998;55.788;37.572;2022-10-31T01:45:55;97339.91;;;0.71;100.00
23643;BME280;11998;55.788;37.572;2022-10-31T01:47:17;97349.59;;;0.62;100.00
23643;BME280;11998;55.788;37.572;2022-10-31T01:48:29;97350.53;;;0.59;100.00
23643;BME280;11998;55.788;37.572;2022-10-31T01:49:41;97342.72;;;0.59;100.00
23643;BME280;11998;55.788;37.572;2022-10-31T01:50:44;97346.16;;;0.61;100.00
23643;BME280;11998;55.788;37.572;2022-10-31T01:51:53;97344.47;;;0.58;100.00
23643;BME280;11998;55.788;37.572;2022-10-31T01:52:55;97340.16;;;0.56;100.00
23643;BME280;11998;55.788;37.572;2022-10-31T01:54:00;97351.50;;;0.53;100.00
23643;BME280;11998;55.788;37.572;2022-10-31T01:55:09;97356.72;;;0.53;100.00
23643;BME280;11998;55.788;37.572;2022-10-31T01:56:13;97355.78;;;0.56;100.00
23643;BME280;11998;55.788;37.572;2022-10-31T01:57:16;97354.03;;;0.58;100.00
23643;BME280;11998;55.788;37.572;2022-10-31T01:58:21;97362.63;;;0.63;100.00
23643;BME280;11998;55.788;37.572;2022-10-31T01:59:25;97352.38;;;0.54;100.00
23643;BME280;11998;55.788;37.572;2022-10-31T02:00:27;97355.72;;;0.59;100.00
23643;BME280;11998;55.788;37.572;2022-10-31T02:01:28;97353.94;;;0.64;100.00
23643;BME280;11998;55.788;37.572;2022-10-31T02:02:30;97354.81;;;0.62;100.00
23643;BME280;11998;55.788;37.572;2022-10-31T02:03:31;97357.38;;;0.66;100.00
23643;BME280;11998;55.788;37.572;2022-10-31T02:04:32;97362.69;;;0.58;100.00
23643;BME280;11998;55.788;37.572;2022-10-31T02:05:34;97353.22;;;0.54;100.00
23643;BME280;11998;55.788;37.572;2022-10-31T02:08:55;97366.28;;;0.53;100.00
23643;BME280;11998;55.788;37.572;2022-10-31T02:09:57;97359.38;;;0.50;100.00
23643;BME280;11998;55.788;37.572;2022-10-31T02:11:00;97353.31;;;0.50;100.00
23643;BME280;11998;55.788;37.572;2022-10-31T02:12:02;97355.06;;;0.48;100.00
23643;BME280;11998;55.788;37.572;2022-10-31T02:13:05;97361.97;;;0.50;100.00
23643;BME280;11998;55.788;37.572;2022-10-31T02:14:05;97358.53;;;0.50;100.00
23643;BME280;11998;55.788;37.572;2022-10-31T02:15:07;97356.78;;;0.49;100.00
23643;BME280;11998;55.788;37.572;2022-10-31T02:16:09;97358.50;;;0.48;100.00
23643;BME280;11998;55.788;37.572;2022-10-31T02:17:10;97358.59;;;0.44;100.00
23643;BME280;11998;55.788;37.572;2022-10-31T02:18:10;97364.75;;;0.40;100.00
23643;BME280;11998;55.788;37.572;2022-10-31T02:19:18;97351.63;;;0.46;100.00
23643;BME280;11998;55.788;37.572;2022-10-31T02:20:23;97357.75;;;0.43;100.00
23643;BME280;11998;55.788;37.572;2022-10-31T02:21:56;97363.78;;;0.45;100.00
23643;BME280;11998;55.788;37.572;2022-10-31T02:24:16;97349.91;;;0.45;100.00
23643;BME280;11998;55.788;37.572;2022-10-31T02:28:52;97360.38;;;0.42;100.00
23643;BME280;11998;55.788;37.572;2022-10-31T02:30:18;97361.19;;;0.45;100.00
23643;BME280;11998;55.788;37.572;2022-10-31T02:33:23;97363.88;;;0.39;100.00
23643;BME280;11998;55.788;37.572;2022-10-31T02:37:13;97361.34;;;0.35;100.00
23643;BME280;11998;55.788;37.572;2022-10-31T02:39:56;97366.72;;;0.25;100.00
23643;BME280;11998;55.788;37.572;2022-10-31T02:42:19;97360.59;;;0.28;100.00
23643;BME280;11998;55.788;37.572;2022-10-31T02:43:35;97357.91;;;0.33;100.00
23643;BME280;11998;55.788;37.572;2022-10-31T02:45:07;97364.78;;;0.37;100.00
23643;BME280;11998;55.788;37.572;2022-10-31T02:46:24;97367.47;;;0.32;100.00
23643;BME280;11998;55.788;37.572;2022-10-31T02:47:29;97360.63;;;0.26;100.00
23643;BME280;11998;55.788;37.572;2022-10-31T02:48:37;97359.75;;;0.26;100.00
23643;BME280;11998;55.788;37.572;2022-10-31T02:50:53;97363.22;;;0.26;100.00
23643;BME280;11998;55.788;37.572;2022-10-31T02:51:55;97366.78;;;0.19;100.00
23643;BME280;11998;55.788;37.572;2022-10-31T02:52:56;97366.59;;;0.32;100.00
23643;BME280;11998;55.788;37.572;2022-10-31T02:53:56;97367.47;;;0.32;100.00
23643;BME280;11998;55.788;37.572;2022-10-31T02:54:57;97367.38;;;0.38;100.00
23643;BME280;11998;55.788;37.572;2022-10-31T02:56:17;97373.44;;;0.39;100.00
23643;BME280;11998;55.788;37.572;2022-10-31T02:57:23;97362.94;;;0.43;100.00
23643;BME280;11998;55.788;37.572;2022-10-31T02:58:28;97362.13;;;0.41;100.00
23643;BME280;11998;55.788;37.572;2022-10-31T02:59:31;97366.47;;;0.41;100.00
23643;BME280;11998;55.788;37.572;2022-10-31T03:01:45;97367.25;;;0.46;100.00
23643;BME280;11998;55.788;37.572;2022-10-31T03:02:41;97365.53;;;0.45;100.00
23643;BME280;11998;55.788;37.572;2022-10-31T03:05:38;97369.00;;;0.45;100.00
23643;BME280;11998;55.788;37.572;2022-10-31T03:07:08;97370.72;;;0.45;100.00
23643;BME280;11998;55.788;37.572;2022-10-31T03:08:18;97370.72;;;0.45;100.00
23643;BME280;11998;55.788;37.572;2022-10-31T03:09:26;97366.41;;;0.44;100.00
23643;BME280;11998;55.788;37.572;2022-10-31T03:10:55;97361.25;;;0.41;100.00
23643;BME280;11998;55.788;37.572;2022-10-31T03:12:04;97362.91;;;0.45;100.00
23643;BME280;11998;55.788;37.572;2022-10-31T03:14:26;97364.75;;;0.40;100.00
23643;BME280;11998;55.788;37.572;2022-10-31T03:15:48;97369.06;;;0.41;100.00
23643;BME280;11998;55.788;37.572;2022-10-31T03:16:51;97368.13;;;0.45;100.00
23643;BME280;11998;55.788;37.572;2022-10-31T03:19:03;97368.06;;;0.48;100.00
23643;BME280;11998;55.788;37.572;2022-10-31T03:20:07;97372.44;;;0.46;100.00
23643;BME280;11998;55.788;37.572;2022-10-31T03:21:13;97366.31;;;0.50;100.00
23643;BME280;11998;55.788;37.572;2022-10-31T03:22:19;97369.75;;;0.52;100.00
23643;BME280;11998;55.788;37.572;2022-10-31T03:23:22;97371.47;;;0.53;100.00
23643;BME280;11998;55.788;37.572;2022-10-31T03:24:29;97373.97;;;0.59;100.00
23643;BME280;11998;55.788;37.572;2022-10-31T03:25:31;97372.16;;;0.64;100.00
23643;BME280;11998;55.788;37.572;2022-10-31T03:26:35;97366.97;;;0.64;100.00
23643;BME280;11998;55.788;37.572;2022-10-31T03:27:38;97364.28;;;0.67;100.00
23643;BME280;11998;55.788;37.572;2022-10-31T03:28:48;97367.78;;;0.66;100.00
23643;BME280;11998;55.788;37.572;2022-10-31T03:29:52;97371.16;;;0.71;100.00
23643;BME280;11998;55.788;37.572;2022-10-31T03:30:56;97362.56;;;0.66;100.00
23643;BME280;11998;55.788;37.572;2022-10-31T03:32:30;97363.38;;;0.70;100.00
23643;BME280;11998;55.788;37.572;2022-10-31T03:33:34;97364.22;;;0.70;100.00
23643;BME280;11998;55.788;37.572;2022-10-31T03:34:37;97360.69;;;0.74;100.00
23643;BME280;11998;55.788;37.572;2022-10-31T03:35:42;97366.72;;;0.78;100.00
23643;BME280;11998;55.788;37.572;2022-10-31T03:36:47;97363.25;;;0.77;100.00
23643;BME280;11998;55.788;37.572;2022-10-31T03:37:51;97358.81;;;0.82;100.00
23643;BME280;11998;55.788;37.572;2022-10-31T03:38:53;97363.25;;;0.77;100.00
23643;BME280;11998;55.788;37.572;2022-10-31T03:39:55;97367.50;;;0.81;100.00
23643;BME280;11998;55.788;37.572;2022-10-31T03:41:00;97359.69;;;0.81;100.00
23643;BME280;11998;55.788;37.572;2022-10-31T03:42:09;97365.03;;;0.75;100.00
23643;BME280;11998;55.788;37.572;2022-10-31T03:43:15;97371.09;;;0.74;100.00
23643;BME280;11998;55.788;37.572;2022-10-31T03:44:19;97371.13;;;0.73;100.00
23643;BME280;11998;55.788;37.572;2022-10-31T03:45:24;97369.56;;;0.64;100.00
23643;BME280;11998;55.788;37.572;2022-10-31T03:46:26;97364.34;;;0.64;100.00
23643;BME280;11998;55.788;37.572;2022-10-31T03:47:28;97375.63;;;0.65;100.00
23643;BME280;11998;55.788;37.572;2022-10-31T03:48:29;97374.78;;;0.64;100.00
23643;BME280;11998;55.788;37.572;2022-10-31T03:49:30;97372.94;;;0.69;100.00
23643;BME280;11998;55.788;37.572;2022-10-31T03:51:12;97380.84;;;0.65;100.00
23643;BME280;11998;55.788;37.572;2022-10-31T03:52:28;97378.19;;;0.66;100.00
23643;BME280;11998;55.788;37.572;2022-10-31T03:53:38;97378.19;;;0.68;100.00
23643;BME280;11998;55.788;37.572;2022-10-31T03:54:53;97381.56;;;0.71;100.00
23643;BME280;11998;55.788;37.572;2022-10-31T03:56:06;97383.28;;;0.72;100.00
23643;BME280;11998;55.788;37.572;2022-10-31T03:58:28;97384.19;;;0.71;100.00
23643;BME280;11998;55.788;37.572;2022-10-31T03:59:35;97376.38;;;0.71;100.00
23643;BME280;11998;55.788;37.572;2022-10-31T04:00:42;97385.13;;;0.67;100.00
23643;BME280;11998;55.788;37.572;2022-10-31T04:01:48;97378.25;;;0.63;100.00
23643;BME280;11998;55.788;37.572;2022-10-31T04:03:05;97382.69;;;0.56;100.00
23643;BME280;11998;55.788;37.572;2022-10-31T04:04:07;97382.78;;;0.52;100.00
23643;BME280;11998;55.788;37.572;2022-10-31T04:05:09;97389.66;;;0.56;100.00
23643;BME280;11998;55.788;37.572;2022-10-31T04:06:13;97383.50;;;0.60;100.00
23643;BME280;11998;55.788;37.572;2022-10-31T04:07:15;97390.47;;;0.58;100.00
23643;BME280;11998;55.788;37.572;2022-10-31T04:08:21;97396.50;;;0.63;100.00
23643;BME280;11998;55.788;37.572;2022-10-31T04:09:25;97397.25;;;0.68;100.00
23643;BME280;11998;55.788;37.572;2022-10-31T04:10:27;97397.25;;;0.68;100.00
23643;BME280;11998;55.788;37.572;2022-10-31T04:11:32;97388.63;;;0.66;100.00
23643;BME280;11998;55.788;37.572;2022-10-31T04:12:35;97392.00;;;0.71;100.00
23643;BME280;11998;55.788;37.572;2022-10-31T04:13:39;97392.13;;;0.65;100.00
23643;BME280;11998;55.788;37.572;2022-10-31T04:14:42;97393.81;;;0.66;100.00
23643;BME280;11998;55.788;37.572;2022-10-31T04:15:45;97390.31;;;0.69;100.00
23643;BME280;11998;55.788;37.572;2022-10-31T04:16:46;97394.63;;;0.70;100.00
23643;BME280;11998;55.788;37.572;2022-10-31T04:17:47;97391.16;;;0.69;100.00
23643;BME280;11998;55.788;37.572;2022-10-31T04:18:51;97399.88;;;0.68;100.00
23643;BME280;11998;55.788;37.572;2022-10-31T04:19:51;97394.53;;;0.76;100.00
23643;BME280;11998;55.788;37.572;2022-10-31T04:21:05;97399.75;;;0.74;100.00
23643;BME280;11998;55.788;37.572;2022-10-31T04:22:06;97398.84;;;0.78;100.00
23643;BME280;11998;55.788;37.572;2022-10-31T04:23:34;97410.06;;;0.82;100.00
23643;BME280;11998;55.788;37.572;2022-10-31T04:24:37;97407.44;;;0.83;100.00
23643;BME280;11998;55.788;37.572;2022-10-31T04:25:38;97399.69;;;0.79;100.00
23643;BME280;11998;55.788;37.572;2022-10-31T04:26:39;97398.78;;;0.81;100.00
23643;BME280;11998;55.788;37.572;2022-10-31T04:27:39;97407.53;;;0.77;100.00
23643;BME280;11998;55.788;37.572;2022-10-31T04:28:40;97413.63;;;0.76;100.00
23643;BME280;11998;55.788;37.572;2022-10-31T04:29:40;97416.19;;;0.79;100.00
23643;BME280;11998;55.788;37.572;2022-10-31T04:30:41;97410.06;;;0.82;100.00
23643;BME280;11998;55.788;37.572;2022-10-31T04:31:41;97407.44;;;0.83;100.00
23643;BME280;11998;55.788;37.572;2022-10-31T04:32:42;97423.06;;;0.83;100.00
23643;BME280;11998;55.788;37.572;2022-10-31T04:33:42;97416.06;;;0.85;100.00
23643;BME280;11998;55.788;37.572;2022-10-31T04:34:43;97422.13;;;0.86;100.00
23643;BME280;11998;55.788;37.572;2022-10-31T04:35:43;97423.13;;;0.80;100.00
23643;BME280;11998;55.788;37.572;2022-10-31T04:36:44;97423.06;;;0.83;100.00
23643;BME280;11998;55.788;37.572;2022-10-31T04:37:44;97417.78;;;0.86;100.00
23643;BME280;11998;55.788;37.572;2022-10-31T04:38:45;97418.69;;;0.84;100.00
23643;BME280;11998;55.788;37.572;2022-10-31T04:39:45;97425.63;;;0.85;100.00
23643;BME280;11998;55.788;37.572;2022-10-31T04:40:46;97413.59;;;0.79;100.00
23643;BME280;11998;55.788;37.572;2022-10-31T04:41:46;97417.84;;;0.83;100.00
23643;BME280;11998;55.788;37.572;2022-10-31T04:42:47;97419.75;;;0.75;100.00
23643;BME280;11998;55.788;37.572;2022-10-31T04:43:47;97421.25;;;0.88;100.00
23643;BME280;11998;55.788;37.572;2022-10-31T04:44:48;97419.53;;;0.87;100.00
23643;BME280;11998;55.788;37.572;2022-10-31T04:45:48;97421.25;;;0.88;100.00
23643;BME280;11998;55.788;37.572;2022-10-31T04:46:49;97416.03;;;0.88;100.00
23643;BME280;11998;55.788;37.572;2022-10-31T04:47:49;97422.13;;;0.86;100.00
23643;BME280;11998;55.788;37.572;2022-10-31T04:48:49;97416.94;;;0.86;100.00
23643;BME280;11998;55.788;37.572;2022-10-31T04:49:50;97426.47;;;0.88;100.00
23643;BME280;11998;55.788;37.572;2022-10-31T04:50:50;97429.84;;;0.94;100.00
23643;BME280;11998;55.788;37.572;2022-10-31T04:51:51;97428.13;;;0.93;100.00
23643;BME280;11998;55.788;37.572;2022-10-31T04:52:51;97433.38;;;0.90;100.00
23643;BME280;11998;55.788;37.572;2022-10-31T04:53:52;97425.56;;;0.90;100.00
23643;BME280;11998;55.788;37.572;2022-10-31T04:54:52;97422.84;;;0.96;100.00
23643;BME280;11998;55.788;37.572;2022-10-31T04:55:53;97436.81;;;0.92;100.00
23643;BME280;11998;55.788;37.572;2022-10-31T04:56:53;97426.41;;;0.92;100.00
23643;BME280;11998;55.788;37.572;2022-10-31T04:57:54;97435.09;;;0.91;100.00
23643;BME280;11998;55.788;37.572;2022-10-31T04:58:54;97433.28;;;0.96;100.00
23643;BME280;11998;55.788;37.572;2022-10-31T04:59:55;97441.06;;;0.97;100.00
23643;BME280;11998;55.788;37.572;2022-10-31T05:00:56;97436.72;;;0.98;100.00
23643;BME280;11998;55.788;37.572;2022-10-31T05:01:56;97437.44;;;1.06;100.00
23643;BME280;11998;55.788;37.572;2022-10-31T05:02:57;97443.56;;;1.05;100.00
23643;BME280;11998;55.788;37.572;2022-10-31T05:04:01;97443.63;;;1.02;100.00
23643;BME280;11998;55.788;37.572;2022-10-31T05:05:02;97439.28;;;0.99;100.00
23643;BME280;11998;55.788;37.572;2022-10-31T05:06:04;97444.50;;;1.01;100.00
23643;BME280;11998;55.788;37.572;2022-10-31T05:07:05;97447.03;;;1.04;100.00
23643;BME280;11998;55.788;37.572;2022-10-31T05:08:05;97440.06;;;1.06;100.00
23643;BME280;11998;55.788;37.572;2022-10-31T05:09:06;97447.09;;;1.01;100.00
23643;BME280;11998;55.788;37.572;2022-10-31T05:10:07;97452.25;;;1.04;100.00
23643;BME280;11998;55.788;37.572;2022-10-31T05:11:09;97450.59;;;1.00;100.00
23643;BME280;11998;55.788;37.572;2022-10-31T05:12:11;97461.84;;;1.02;100.00
23643;BME280;11998;55.788;37.572;2022-10-31T05:13:11;97451.47;;;0.97;100.00
23643;BME280;11998;55.788;37.572;2022-10-31T05:14:12;97454.06;;;0.99;100.00
23643;BME280;11998;55.788;37.572;2022-10-31T05:15:13;97453.22;;;1.00;100.00
23643;BME280;11998;55.788;37.572;2022-10-31T05:16:13;97457.56;;;0.98;100.00
23643;BME280;11998;55.788;37.572;2022-10-31T05:17:14;97467.16;;;0.96;100.00
23643;BME280;11998;55.788;37.572;2022-10-31T05:18:14;97477.66;;;0.91;100.00
23643;BME280;11998;55.788;37.572;2022-10-31T05:19:15;97466.47;;;0.84;100.00
23643;BME280;11998;55.788;37.572;2022-10-31T05:20:16;97462.97;;;0.85;100.00
23643;BME280;11998;55.788;37.572;2022-10-31T05:21:17;97477.81;;;0.80;100.00
23643;BME280;11998;55.788;37.572;2022-10-31T05:22:17;97474.31;;;0.83;100.00
23643;BME280;11998;55.788;37.572;2022-10-31T05:23:18;97479.53;;;0.81;100.00
23643;BME280;11998;55.788;37.572;2022-10-31T05:24:18;97482.25;;;0.75;100.00
23643;BME280;11998;55.788;37.572;2022-10-31T05:25:24;97483.13;;;0.76;100.00
23643;BME280;11998;55.788;37.572;2022-10-31T05:26:24;97489.97;;;0.81;100.00
23643;BME280;11998;55.788;37.572;2022-10-31T05:27:25;97485.59;;;0.83;100.00
23643;BME280;11998;55.788;37.572;2022-10-31T05:28:26;97490.75;;;0.86;100.00
23643;BME280;11998;55.788;37.572;2022-10-31T05:29:26;97492.50;;;0.87;100.00
23643;BME280;11998;55.788;37.572;2022-10-31T05:30:30;97503.78;;;0.85;100.00
23643;BME280;11998;55.788;37.572;2022-10-31T05:31:31;97501.22;;;0.83;100.00
23643;BME280;11998;55.788;37.572;2022-10-31T05:32:37;97508.06;;;0.91;100.00
23643;BME280;11998;55.788;37.572;2022-10-31T05:33:38;97502.91;;;0.87;100.00
23643;BME280;11998;55.788;37.572;2022-10-31T05:34:38;97515.13;;;0.82;100.00
23643;BME280;11998;55.788;37.572;2022-10-31T05:35:39;97516.88;;;0.82;100.00
23643;BME280;11998;55.788;37.572;2022-10-31T05:36:39;97500.31;;;0.86;100.00
23643;BME280;11998;55.788;37.572;2022-10-31T05:37:40;97518.69;;;0.78;100.00
23643;BME280;11998;55.788;37.572;2022-10-31T05:38:40;97516.91;;;0.80;100.00
23643;BME280;11998;55.788;37.572;2022-10-31T05:39:41;97513.47;;;0.78;100.00
23643;BME280;11998;55.788;37.572;2022-10-31T05:40:41;97528.25;;;0.78;100.00
23643;BME280;11998;55.788;37.572;2022-10-31T05:41:42;97518.63;;;0.81;100.00
23643;BME280;11998;55.788;37.572;2022-10-31T05:42:42;97525.50;;;0.85;100.00
23643;BME280;11998;55.788;37.572;2022-10-31T05:43:43;97532.41;;;0.90;100.00
23643;BME280;11998;55.788;37.572;2022-10-31T05:44:43;97530.59;;;0.93;100.00
23643;BME280;11998;55.788;37.572;2022-10-31T05:45:44;97535.78;;;0.95;100.00
23643;BME280;11998;55.788;37.572;2022-10-31T05:46:46;97528.81;;;0.97;100.00
23643;BME280;11998;55.788;37.572;2022-10-31T05:47:57;97535.75;;;0.98;100.00
23643;BME280;11998;55.788;37.572;2022-10-31T05:48:57;97537.50;;;0.96;100.00
23643;BME280;11998;55.788;37.572;2022-10-31T05:49:58;97540.09;;;0.97;100.00
23643;BME280;11998;55.788;37.572;2022-10-31T05:50:58;97539.16;;;1.03;100.00
23643;BME280;11998;55.788;37.572;2022-10-31T05:51:59;97539.03;;;1.12;100.00
23643;BME280;11998;55.788;37.572;2022-10-31T05:53:02;97545.06;;;1.14;100.00
23643;BME280;11998;55.788;37.572;2022-10-31T05:54:03;97546.75;;;1.16;100.00